createdAt,value
2024-03-19T00:00:54.003Z,1004.85
2024-03-19T00:01:54.005Z,1004.85
2024-03-19T00:02:54.048Z,1004.81
2024-03-19T00:03:54.044Z,1004.78
2024-03-19T00:04:54.080Z,1004.84
2024-03-19T00:05:54.070Z,1004.83
2024-03-19T00:06:54.136Z,1004.84
2024-03-19T00:07:54.099Z,1004.85
2024-03-19T00:08:54.117Z,1004.84
2024-03-19T00:09:54.135Z,1004.88
2024-03-19T00:10:54.146Z,1004.87
2024-03-19T00:11:54.190Z,1004.87
2024-03-19T00:12:54.177Z,1004.82
2024-03-19T00:13:54.206Z,1004.83
2024-03-19T00:14:54.212Z,1004.87
2024-03-19T00:15:54.244Z,1004.82
2024-03-19T00:16:54.242Z,1004.83
2024-03-19T00:17:54.267Z,1004.84
2024-03-19T00:18:54.295Z,1004.83
2024-03-19T00:19:54.312Z,1004.79
2024-03-19T00:20:54.304Z,1004.83
2024-03-19T00:21:54.326Z,1004.86
2024-03-19T00:22:54.330Z,1004.90
2024-03-19T00:23:54.417Z,1004.84
2024-03-19T00:24:54.364Z,1004.84
2024-03-19T00:25:54.392Z,1004.85
2024-03-19T00:26:54.400Z,1004.84
2024-03-19T00:27:54.414Z,1004.85
2024-03-19T00:28:54.457Z,1004.82
2024-03-19T00:29:54.480Z,1004.84
2024-03-19T00:30:54.476Z,1004.83
2024-03-19T00:31:54.475Z,1004.85
2024-03-19T00:32:54.487Z,1004.84
2024-03-19T00:33:54.537Z,1004.82
2024-03-19T00:34:54.541Z,1004.77
2024-03-19T00:35:54.538Z,1004.80
2024-03-19T00:36:54.592Z,1004.75
2024-03-19T00:37:54.569Z,1004.74
2024-03-19T00:38:54.584Z,1004.73
2024-03-19T00:39:54.605Z,1004.72
2024-03-19T00:40:54.623Z,1004.73
2024-03-19T00:41:54.636Z,1004.74
2024-03-19T00:42:54.656Z,1004.73
2024-03-19T00:43:54.663Z,1004.75
2024-03-19T00:44:54.680Z,1004.72
2024-03-19T00:45:54.713Z,1004.74
2024-03-19T00:46:54.721Z,1004.75
2024-03-19T00:47:54.730Z,1004.74
2024-03-19T00:48:54.744Z,1004.75
2024-03-19T00:49:54.786Z,1004.75
2024-03-19T00:50:54.772Z,1004.78
2024-03-19T00:51:54.790Z,1004.78
2024-03-19T00:52:54.802Z,1004.78
2024-03-19T00:53:54.850Z,1004.76
2024-03-19T00:54:54.887Z,1004.82
2024-03-19T00:55:54.846Z,1004.82
2024-03-19T00:56:54.869Z,1004.80
2024-03-19T00:57:54.901Z,1004.77
2024-03-19T00:58:54.906Z,1004.81
2024-03-19T00:59:54.943Z,1004.78
2024-03-19T01:00:54.947Z,1004.78
2024-03-19T01:01:54.942Z,1004.81
2024-03-19T01:02:54.955Z,1004.84
2024-03-19T01:03:54.990Z,1004.84
2024-03-19T01:04:56.467Z,1004.86
2024-03-19T01:05:55.032Z,1004.90
2024-03-19T01:06:55.017Z,1004.86
2024-03-19T01:07:55.041Z,1004.87
2024-03-19T01:08:55.054Z,1004.90
2024-03-19T01:09:55.062Z,1004.89
2024-03-19T01:10:55.106Z,1004.91
2024-03-19T01:11:55.111Z,1004.83
2024-03-19T01:12:55.110Z,1004.85
2024-03-19T01:13:55.139Z,1004.89
2024-03-19T01:14:55.154Z,1004.88
2024-03-19T01:15:55.206Z,1004.86
2024-03-19T01:16:55.179Z,1004.87
2024-03-19T01:17:55.216Z,1004.93
2024-03-19T01:18:55.208Z,1004.91
2024-03-19T01:19:55.220Z,1004.87
2024-03-19T01:20:55.258Z,1004.90
2024-03-19T01:21:55.246Z,1004.92
2024-03-19T01:22:55.264Z,1004.88
2024-03-19T01:23:55.278Z,1004.88
2024-03-19T01:24:55.301Z,1004.88
2024-03-19T01:25:55.346Z,1004.86
2024-03-19T01:26:55.332Z,1004.87
2024-03-19T01:27:55.339Z,1004.81
2024-03-19T01:28:55.357Z,1004.83
2024-03-19T01:29:55.372Z,1004.81
2024-03-19T01:30:55.440Z,1004.82
2024-03-19T01:31:55.404Z,1004.83
2024-03-19T01:32:55.420Z,1004.79
2024-03-19T01:33:55.454Z,1004.85
2024-03-19T01:34:55.464Z,1004.84
2024-03-19T01:35:55.501Z,1004.83
2024-03-19T01:36:55.513Z,1004.84
2024-03-19T01:37:55.500Z,1004.87
2024-03-19T01:38:55.523Z,1004.84
2024-03-19T01:39:55.521Z,1004.88
2024-03-19T01:40:55.539Z,1004.85
2024-03-19T01:41:55.616Z,1004.86
2024-03-19T01:42:55.581Z,1004.86
2024-03-19T01:43:55.588Z,1004.82
2024-03-19T01:44:55.609Z,1004.85
2024-03-19T01:45:55.624Z,1004.82
2024-03-19T01:46:55.670Z,1004.87
2024-03-19T01:47:55.642Z,1004.83
2024-03-19T01:48:55.665Z,1004.79
2024-03-19T01:49:55.678Z,1004.81
2024-03-19T01:50:55.720Z,1004.79
2024-03-19T01:51:55.708Z,1004.77
2024-03-19T01:52:55.724Z,1004.81
2024-03-19T01:53:55.733Z,1004.78
2024-03-19T01:54:55.753Z,1004.81
2024-03-19T01:55:55.771Z,1004.80
2024-03-19T01:56:55.846Z,1004.81
2024-03-19T01:57:55.801Z,1004.77
2024-03-19T01:58:55.815Z,1004.83
2024-03-19T01:59:55.829Z,1004.82
2024-03-19T02:00:55.848Z,1004.82
2024-03-19T02:01:55.882Z,1004.82
2024-03-19T02:02:55.873Z,1004.82
2024-03-19T02:03:55.888Z,1004.84
2024-03-19T02:04:55.905Z,1004.84
2024-03-19T02:05:55.917Z,1004.81
2024-03-19T02:06:55.969Z,1004.78
2024-03-19T02:07:55.971Z,1004.80
2024-03-19T02:08:55.967Z,1004.77
2024-03-19T02:09:55.983Z,1004.76
2024-03-19T02:10:55.996Z,1004.76
2024-03-19T02:11:56.024Z,1004.73
2024-03-19T02:12:56.061Z,1004.74
2024-03-19T02:13:56.043Z,1004.74
2024-03-19T02:14:56.060Z,1004.77
2024-03-19T02:15:56.099Z,1004.81
2024-03-19T02:16:56.088Z,1004.78
2024-03-19T02:17:56.147Z,1004.82
2024-03-19T02:18:56.131Z,1004.78
2024-03-19T02:19:56.140Z,1004.77
2024-03-19T02:20:56.165Z,1004.78
2024-03-19T02:21:56.171Z,1004.76
2024-03-19T02:22:56.219Z,1004.72
2024-03-19T02:23:56.236Z,1004.73
2024-03-19T02:24:56.213Z,1004.70
2024-03-19T02:25:56.238Z,1004.65
2024-03-19T02:26:56.266Z,1004.63
2024-03-19T02:27:56.263Z,1004.67
2024-03-19T02:28:56.298Z,1004.62
2024-03-19T02:29:56.285Z,1004.59
2024-03-19T02:30:56.333Z,1004.55
2024-03-19T02:31:56.315Z,1004.55
2024-03-19T02:32:56.339Z,1004.55
2024-03-19T02:33:56.354Z,1004.52
2024-03-19T02:34:56.392Z,1004.55
2024-03-19T02:35:56.378Z,1004.52
2024-03-19T02:36:56.398Z,1004.57
2024-03-19T02:37:56.419Z,1004.54
2024-03-19T02:38:56.430Z,1004.57
2024-03-19T02:39:56.504Z,1004.57
2024-03-19T02:40:56.463Z,1004.53
2024-03-19T02:41:56.475Z,1004.53
2024-03-19T02:42:56.488Z,1004.55
2024-03-19T02:43:56.502Z,1004.50
2024-03-19T02:44:56.553Z,1004.48
2024-03-19T02:45:56.536Z,1004.47
2024-03-19T02:46:56.583Z,1004.48
2024-03-19T02:47:56.564Z,1004.44
2024-03-19T02:48:56.594Z,1004.48
2024-03-19T02:49:56.602Z,1004.46
2024-03-19T02:50:56.647Z,1004.44
2024-03-19T02:51:56.657Z,1004.45
2024-03-19T02:52:56.651Z,1004.42
2024-03-19T02:53:56.663Z,1004.46
2024-03-19T02:54:56.677Z,1004.44
2024-03-19T02:55:56.694Z,1004.49
2024-03-19T02:56:56.750Z,1004.50
2024-03-19T02:57:56.725Z,1004.48
2024-03-19T02:58:56.770Z,1004.50
2024-03-19T02:59:56.790Z,1004.47
2024-03-19T03:00:56.782Z,1004.44
2024-03-19T03:01:56.809Z,1004.44
2024-03-19T03:02:56.802Z,1004.43
2024-03-19T03:03:56.814Z,1004.41
2024-03-19T03:04:56.833Z,1004.41
2024-03-19T03:05:56.849Z,1004.43
2024-03-19T03:06:56.895Z,1004.43
2024-03-19T03:07:56.875Z,1004.44
2024-03-19T03:08:56.919Z,1004.47
2024-03-19T03:09:56.905Z,1004.46
2024-03-19T03:10:56.965Z,1004.47
2024-03-19T03:11:56.942Z,1004.48
2024-03-19T03:12:56.953Z,1004.48
2024-03-19T03:13:57.012Z,1004.49
2024-03-19T03:14:56.989Z,1004.48
2024-03-19T03:15:56.997Z,1004.51
2024-03-19T03:16:57.023Z,1004.46
2024-03-19T03:17:57.558Z,1004.48
2024-03-19T03:18:57.101Z,1004.48
2024-03-19T03:19:57.066Z,1004.44
2024-03-19T03:20:57.073Z,1004.47
2024-03-19T03:21:57.093Z,1004.46
2024-03-19T03:22:57.112Z,1004.47
2024-03-19T03:23:57.147Z,1004.45
2024-03-19T03:24:57.133Z,1004.47
2024-03-19T03:25:57.159Z,1004.48
2024-03-19T03:26:57.213Z,1004.52
2024-03-19T03:27:57.201Z,1004.50
2024-03-19T03:28:57.196Z,1004.57
2024-03-19T03:29:57.214Z,1004.54
2024-03-19T03:30:57.287Z,1004.54
2024-03-19T03:31:57.246Z,1004.55
2024-03-19T03:32:57.258Z,1004.55
2024-03-19T03:33:57.274Z,1004.54
2024-03-19T03:34:57.296Z,1004.54
2024-03-19T03:35:57.423Z,1004.57
2024-03-19T03:37:00.582Z,1004.51
2024-03-19T03:37:57.343Z,1004.46
2024-03-19T03:38:57.349Z,1004.55
2024-03-19T03:39:57.365Z,1004.56
2024-03-19T03:40:57.382Z,1004.54
2024-03-19T03:41:57.412Z,1004.58
2024-03-19T03:43:00.746Z,1004.55
2024-03-19T03:43:57.427Z,1004.59
2024-03-19T03:44:57.440Z,1004.54
2024-03-19T03:45:57.500Z,1004.56
2024-03-19T03:46:57.494Z,1004.57
2024-03-19T03:47:57.493Z,1004.53
2024-03-19T03:48:57.505Z,1004.52
2024-03-19T03:49:57.520Z,1004.51
2024-03-19T03:50:57.533Z,1004.54
2024-03-19T03:51:57.581Z,1004.51
2024-03-19T03:52:57.584Z,1004.54
2024-03-19T03:53:57.577Z,1004.52
2024-03-19T03:54:57.599Z,1004.58
2024-03-19T03:55:57.671Z,1004.53
2024-03-19T03:56:57.648Z,1004.53
2024-03-19T03:57:57.668Z,1004.53
2024-03-19T03:58:57.657Z,1004.57
2024-03-19T03:59:57.672Z,1004.51
2024-03-19T04:00:57.678Z,1004.53
2024-03-19T04:01:57.723Z,1004.54
2024-03-19T04:02:57.741Z,1004.56
2024-03-19T04:03:57.728Z,1004.54
2024-03-19T04:04:57.745Z,1004.53
2024-03-19T04:05:57.788Z,1004.54
2024-03-19T04:06:57.778Z,1004.56
2024-03-19T04:07:57.821Z,1004.55
2024-03-19T04:08:57.802Z,1004.53
2024-03-19T04:09:57.814Z,1004.56
2024-03-19T04:10:57.840Z,1004.56
2024-03-19T04:11:57.852Z,1004.55
2024-03-19T04:12:57.883Z,1004.57
2024-03-19T04:13:57.900Z,1004.59
2024-03-19T04:14:57.886Z,1004.60
2024-03-19T04:15:57.903Z,1004.63
2024-03-19T04:16:57.919Z,1004.64
2024-03-19T04:17:57.954Z,1004.62
2024-03-19T04:18:57.954Z,1004.65
2024-03-19T04:19:57.966Z,1004.68
2024-03-19T04:20:58.013Z,1004.61
2024-03-19T04:21:57.993Z,1004.63
2024-03-19T04:22:58.008Z,1004.66
2024-03-19T04:23:58.073Z,1004.63
2024-03-19T04:24:58.036Z,1004.63
2024-03-19T04:25:58.053Z,1004.63
2024-03-19T04:26:58.069Z,1004.64
2024-03-19T04:27:58.084Z,1004.63
2024-03-19T04:28:58.134Z,1004.67
2024-03-19T04:29:58.141Z,1004.67
2024-03-19T04:30:58.138Z,1004.64
2024-03-19T04:31:58.145Z,1004.64
2024-03-19T04:32:58.160Z,1004.67
2024-03-19T04:34:03.645Z,1004.68
2024-03-19T04:34:58.237Z,1004.67
2024-03-19T04:35:58.211Z,1004.66
2024-03-19T04:36:58.222Z,1004.67
2024-03-19T04:37:58.288Z,1004.66
2024-03-19T04:38:58.249Z,1004.63
2024-03-19T04:39:58.301Z,1004.62
2024-03-19T04:40:58.308Z,1004.64
2024-03-19T04:41:58.463Z,1004.64
2024-03-19T04:42:58.316Z,1004.64
2024-03-19T04:43:58.332Z,1004.63
2024-03-19T04:44:58.380Z,1004.62
2024-03-19T04:45:58.397Z,1004.64
2024-03-19T04:46:58.371Z,1004.63
2024-03-19T04:47:58.395Z,1004.67
2024-03-19T04:48:58.423Z,1004.66
2024-03-19T04:49:58.421Z,1004.66
2024-03-19T04:50:58.457Z,1004.69
2024-03-19T04:51:58.481Z,1004.69
2024-03-19T04:52:58.486Z,1004.67
2024-03-19T04:53:58.482Z,1004.71
2024-03-19T04:54:58.494Z,1004.71
2024-03-19T04:55:58.549Z,1004.73
2024-03-19T04:56:58.562Z,1004.73
2024-03-19T04:57:58.550Z,1004.75
2024-03-19T04:58:58.553Z,1004.73
2024-03-19T04:59:58.570Z,1004.75
2024-03-19T05:00:58.610Z,1004.78
2024-03-19T05:01:58.601Z,1004.79
2024-03-19T05:02:58.639Z,1004.79
2024-03-19T05:03:58.628Z,1004.75
2024-03-19T05:04:58.643Z,1004.82
2024-03-19T05:05:58.662Z,1004.80
2024-03-19T05:06:58.712Z,1004.81
2024-03-19T05:07:58.728Z,1004.79
2024-03-19T05:08:58.704Z,1004.79
2024-03-19T05:09:58.730Z,1004.78
2024-03-19T05:10:58.796Z,1004.79
2024-03-19T05:11:58.777Z,1004.79
2024-03-19T05:12:58.862Z,1004.82
2024-03-19T05:13:58.787Z,1004.81
2024-03-19T05:14:58.810Z,1004.81
2024-03-19T05:15:58.831Z,1004.82
2024-03-19T05:16:58.866Z,1004.80
2024-03-19T05:17:58.893Z,1004.84
2024-03-19T05:18:58.898Z,1004.84
2024-03-19T05:19:58.871Z,1004.83
2024-03-19T05:20:58.898Z,1004.85
2024-03-19T05:21:58.919Z,1004.85
2024-03-19T05:22:58.984Z,1004.82
2024-03-19T05:23:58.972Z,1004.82
2024-03-19T05:24:58.963Z,1004.83
2024-03-19T05:25:58.959Z,1004.86
2024-03-19T05:26:58.975Z,1004.88
2024-03-19T05:27:59.016Z,1004.83
2024-03-19T05:28:59.009Z,1004.89
2024-03-19T05:29:59.019Z,1004.88
2024-03-19T05:30:59.050Z,1004.86
2024-03-19T05:31:59.050Z,1004.89
2024-03-19T05:32:59.101Z,1004.88
2024-03-19T05:33:59.081Z,1004.90
2024-03-19T05:34:59.093Z,1004.86
2024-03-19T05:35:59.111Z,1004.93
2024-03-19T05:36:59.127Z,1004.90
2024-03-19T05:37:59.136Z,1004.97
2024-03-19T05:38:59.209Z,1004.95
2024-03-19T05:39:59.184Z,1004.94
2024-03-19T05:40:59.197Z,1004.98
2024-03-19T05:41:59.205Z,1004.97
2024-03-19T05:42:59.240Z,1005.00
2024-03-19T05:44:00.923Z,1004.97
2024-03-19T05:44:59.271Z,1005.00
2024-03-19T05:45:59.270Z,1005.01
2024-03-19T05:46:59.296Z,1004.96
2024-03-19T05:47:59.307Z,1005.00
2024-03-19T05:48:59.337Z,1004.96
2024-03-19T05:49:59.357Z,1005.01
2024-03-19T05:50:59.341Z,1005.05
2024-03-19T05:51:59.349Z,1005.06
2024-03-19T05:52:59.394Z,1005.07
2024-03-19T05:54:00.004Z,1005.09
2024-03-19T05:54:59.409Z,1005.12
2024-03-19T05:55:59.415Z,1005.11
2024-03-19T05:56:59.433Z,1005.14
2024-03-19T05:57:59.442Z,1005.19
2024-03-19T05:58:59.492Z,1005.17
2024-03-19T06:00:00.346Z,1005.15
2024-03-19T06:00:59.499Z,1005.13
2024-03-19T06:01:59.503Z,1005.15
2024-03-19T06:02:59.521Z,1005.13
2024-03-19T06:03:59.564Z,1005.13
2024-03-19T06:04:59.590Z,1005.18
2024-03-19T06:05:59.577Z,1005.16
2024-03-19T06:06:59.591Z,1005.19
2024-03-19T06:07:59.598Z,1005.24
2024-03-19T06:08:59.617Z,1005.23
2024-03-19T06:09:59.653Z,1005.23
2024-03-19T06:10:59.675Z,1005.20
2024-03-19T06:11:59.660Z,1005.16
2024-03-19T06:12:59.709Z,1005.17
2024-03-19T06:13:59.686Z,1005.20
2024-03-19T06:14:59.712Z,1005.20
2024-03-19T06:15:59.748Z,1005.17
2024-03-19T06:16:59.737Z,1005.17
2024-03-19T06:17:59.754Z,1005.22
2024-03-19T06:19:02.075Z,1005.23
2024-03-19T06:19:59.782Z,1005.19
2024-03-19T06:20:59.829Z,1005.27
2024-03-19T06:21:59.812Z,1005.25
2024-03-19T06:22:59.832Z,1005.25
2024-03-19T06:24:02.270Z,1005.28
2024-03-19T06:25:00.585Z,1005.29
2024-03-19T06:25:59.956Z,1005.28
2024-03-19T06:27:00.250Z,1005.26
2024-03-19T06:28:00.793Z,1005.31
2024-03-19T06:29:00.044Z,1005.32
2024-03-19T06:30:00.292Z,1005.33
2024-03-19T06:31:00.380Z,1005.33
2024-03-19T06:32:00.787Z,1005.31
2024-03-19T06:33:00.604Z,1005.32
2024-03-19T06:34:00.368Z,1005.30
2024-03-19T06:35:00.193Z,1005.27
2024-03-19T06:36:00.299Z,1005.30
2024-03-19T06:37:00.320Z,1005.29
2024-03-19T06:38:00.217Z,1005.30
2024-03-19T06:39:01.303Z,1005.32
2024-03-19T06:40:01.009Z,1005.30
2024-03-19T06:41:00.255Z,1005.32
2024-03-19T06:42:00.504Z,1005.35
2024-03-19T06:43:00.357Z,1005.33
2024-03-19T06:44:00.344Z,1005.39
2024-03-19T06:45:02.512Z,1005.38
2024-03-19T06:46:04.031Z,1005.38
2024-03-19T06:47:01.092Z,1005.35
2024-03-19T06:48:00.661Z,1005.33
2024-03-19T06:49:02.018Z,1005.42
2024-03-19T06:50:02.030Z,1005.42
2024-03-19T06:51:01.542Z,1005.43
2024-03-19T06:52:00.357Z,1005.44
2024-03-19T06:53:01.314Z,1005.42
2024-03-19T06:54:01.509Z,1005.43
2024-03-19T06:55:05.093Z,1005.47
2024-03-19T06:56:01.035Z,1005.49
2024-03-19T06:57:01.705Z,1005.52
2024-03-19T06:58:02.604Z,1005.53
2024-03-19T06:59:00.870Z,1005.52
2024-03-19T07:00:01.727Z,1005.54
2024-03-19T07:01:12.242Z,1005.58
2024-03-19T07:02:00.742Z,1005.60
2024-03-19T07:03:01.408Z,1005.62
2024-03-19T07:04:06.927Z,1005.64
2024-03-19T07:05:01.190Z,1005.61
2024-03-19T07:06:03.575Z,1005.63
2024-03-19T07:07:03.536Z,1005.60
2024-03-19T07:08:02.317Z,1005.58
2024-03-19T07:09:01.373Z,1005.58
2024-03-19T07:10:02.560Z,1005.53
2024-03-19T07:11:03.512Z,1005.53
2024-03-19T07:12:02.526Z,1005.54
2024-03-19T07:13:02.027Z,1005.54
2024-03-19T07:14:02.060Z,1005.51
2024-03-19T07:15:00.709Z,1005.56
2024-03-19T07:16:01.963Z,1005.56
2024-03-19T07:17:00.695Z,1005.58
2024-03-19T07:18:00.750Z,1005.56
2024-03-19T07:19:00.721Z,1005.58
2024-03-19T07:20:00.731Z,1005.64
2024-03-19T07:21:00.756Z,1005.60
2024-03-19T07:22:15.975Z,1005.65
2024-03-19T07:23:00.777Z,1005.67
2024-03-19T07:24:00.793Z,1005.70
2024-03-19T07:25:00.894Z,1005.72
2024-03-19T07:26:00.860Z,1005.68
2024-03-19T07:27:03.747Z,1005.71
2024-03-19T07:28:00.858Z,1005.70
2024-03-19T07:29:00.909Z,1005.70
2024-03-19T07:30:00.895Z,1005.67
2024-03-19T07:31:00.912Z,1005.65
2024-03-19T07:32:01.162Z,1005.67
2024-03-19T07:33:01.071Z,1005.69
2024-03-19T07:34:00.983Z,1005.72
2024-03-19T07:35:00.998Z,1005.75
2024-03-19T07:36:01.007Z,1005.79
2024-03-19T07:37:01.036Z,1005.81
2024-03-19T07:38:01.163Z,1005.82
2024-03-19T07:39:01.149Z,1005.83
2024-03-19T07:40:01.104Z,1005.83
2024-03-19T07:41:01.091Z,1005.82
2024-03-19T07:42:01.264Z,1005.83
2024-03-19T07:43:01.300Z,1005.81
2024-03-19T07:44:01.130Z,1005.79
2024-03-19T07:45:01.179Z,1005.82
2024-03-19T07:46:01.172Z,1005.81
2024-03-19T07:47:01.240Z,1005.83
2024-03-19T07:48:01.297Z,1005.82
2024-03-19T07:49:02.585Z,1005.87
2024-03-19T07:50:01.291Z,1005.82
2024-03-19T07:51:01.244Z,1005.82
2024-03-19T07:52:04.037Z,1005.83
2024-03-19T07:53:01.369Z,1005.81
2024-03-19T07:54:01.345Z,1005.83
2024-03-19T07:55:02.182Z,1005.84
2024-03-19T07:56:01.497Z,1005.86
2024-03-19T07:57:01.361Z,1005.85
2024-03-19T07:58:01.370Z,1005.88
2024-03-19T07:59:01.552Z,1005.88
2024-03-19T08:00:01.410Z,1005.84
2024-03-19T08:01:01.457Z,1005.88
2024-03-19T08:02:02.244Z,1005.91
2024-03-19T08:03:01.460Z,1005.88
2024-03-19T08:04:05.742Z,1005.88
2024-03-19T08:05:01.489Z,1005.90
2024-03-19T08:06:01.615Z,1005.88
2024-03-19T08:07:01.537Z,1005.88
2024-03-19T08:08:01.559Z,1005.93
2024-03-19T08:09:01.561Z,1005.92
2024-03-19T08:10:01.605Z,1005.95
2024-03-19T08:11:01.620Z,1005.95
2024-03-19T08:12:01.639Z,1005.96
2024-03-19T08:13:01.639Z,1005.97
2024-03-19T08:14:01.645Z,1005.99
2024-03-19T08:15:01.701Z,1005.99
2024-03-19T08:16:01.773Z,1005.98
2024-03-19T08:17:01.701Z,1006.01
2024-03-19T08:18:01.724Z,1006.01
2024-03-19T08:19:01.745Z,1006.02
2024-03-19T08:20:01.763Z,1006.04
2024-03-19T08:21:03.514Z,1006.04
2024-03-19T08:22:01.808Z,1006.02
2024-03-19T08:23:01.834Z,1006.01
2024-03-19T08:24:01.856Z,1006.03
2024-03-19T08:25:01.860Z,1006.02
2024-03-19T08:26:01.901Z,1006.05
2024-03-19T08:27:01.899Z,1006.04
2024-03-19T08:28:01.886Z,1006.06
2024-03-19T08:29:01.935Z,1006.05
2024-03-19T08:30:01.991Z,1006.06
2024-03-19T08:31:01.963Z,1006.07
2024-03-19T08:32:01.962Z,1006.09
2024-03-19T08:33:02.005Z,1006.08
2024-03-19T08:34:02.041Z,1006.09
2024-03-19T08:35:02.021Z,1006.09
2024-03-19T08:36:02.102Z,1006.12
2024-03-19T08:37:02.344Z,1006.11
2024-03-19T08:38:02.067Z,1006.14
2024-03-19T08:39:02.131Z,1006.15
2024-03-19T08:40:02.174Z,1006.15
2024-03-19T08:41:02.124Z,1006.17
2024-03-19T08:42:05.235Z,1006.19
2024-03-19T08:43:02.153Z,1006.19
2024-03-19T08:44:02.221Z,1006.15
2024-03-19T08:45:02.187Z,1006.16
2024-03-19T08:46:02.211Z,1006.13
2024-03-19T08:47:02.260Z,1006.15
2024-03-19T08:48:02.252Z,1006.13
2024-03-19T08:49:02.294Z,1006.19
2024-03-19T08:50:02.318Z,1006.12
2024-03-19T08:51:02.317Z,1006.17
2024-03-19T08:52:02.328Z,1006.16
2024-03-19T08:53:02.335Z,1006.17
2024-03-19T08:54:02.520Z,1006.18
2024-03-19T08:55:02.716Z,1006.22
2024-03-19T08:56:02.413Z,1006.17
2024-03-19T08:57:02.527Z,1006.17
2024-03-19T08:58:02.420Z,1006.18
2024-03-19T08:59:02.462Z,1006.25
2024-03-19T09:00:02.472Z,1006.18
2024-03-19T09:01:02.515Z,1006.15
2024-03-19T09:02:02.492Z,1006.14
2024-03-19T09:03:02.560Z,1006.16
2024-03-19T09:04:02.561Z,1006.18
2024-03-19T09:05:02.603Z,1006.16
2024-03-19T09:06:02.628Z,1006.23
2024-03-19T09:07:02.598Z,1006.20
2024-03-19T09:08:02.604Z,1006.19
2024-03-19T09:09:02.622Z,1006.25
2024-03-19T09:10:02.701Z,1006.25
2024-03-19T09:11:02.734Z,1006.19
2024-03-19T09:12:02.832Z,1006.22
2024-03-19T09:13:02.788Z,1006.18
2024-03-19T09:14:02.715Z,1006.17
2024-03-19T09:15:02.752Z,1006.16
2024-03-19T09:16:02.820Z,1006.13
2024-03-19T09:17:02.858Z,1006.15
2024-03-19T09:18:02.824Z,1006.16
2024-03-19T09:19:02.812Z,1006.17
2024-03-19T09:20:02.879Z,1006.14
2024-03-19T09:21:02.977Z,1006.13
2024-03-19T09:22:03.017Z,1006.14
2024-03-19T09:23:03.012Z,1006.17
2024-03-19T09:24:02.906Z,1006.11
2024-03-19T09:25:05.437Z,1006.12
2024-03-19T09:26:02.960Z,1006.15
2024-03-19T09:27:03.007Z,1006.11
2024-03-19T09:28:03.066Z,1006.16
2024-03-19T09:29:05.544Z,1006.07
2024-03-19T09:30:03.053Z,1006.10
2024-03-19T09:31:03.055Z,1006.08
2024-03-19T09:32:03.053Z,1006.10
2024-03-19T09:33:03.146Z,1006.07
2024-03-19T09:34:03.112Z,1006.05
2024-03-19T09:35:03.676Z,1006.02
2024-03-19T09:36:03.135Z,1006.10
2024-03-19T09:37:03.147Z,1006.11
2024-03-19T09:38:03.246Z,1006.08
2024-03-19T09:39:03.203Z,1006.08
2024-03-19T09:40:04.214Z,1006.13
2024-03-19T09:41:03.228Z,1006.10
2024-03-19T09:42:03.246Z,1006.12
2024-03-19T09:43:03.322Z,1006.12
2024-03-19T09:44:03.297Z,1006.13
2024-03-19T09:45:03.313Z,1006.15
2024-03-19T09:46:08.078Z,1006.13
2024-03-19T09:47:03.350Z,1006.14
2024-03-19T09:48:06.181Z,1006.14
2024-03-19T09:49:03.414Z,1006.13
2024-03-19T09:50:03.466Z,1006.12
2024-03-19T09:51:03.442Z,1006.16
2024-03-19T09:52:03.585Z,1006.14
2024-03-19T09:53:03.464Z,1006.14
2024-03-19T09:54:05.679Z,1006.08
2024-03-19T09:55:03.510Z,1006.11
2024-03-19T09:56:03.547Z,1006.06
2024-03-19T09:57:03.556Z,1006.08
2024-03-19T09:58:03.569Z,1006.06
2024-03-19T09:59:03.626Z,1006.08
2024-03-19T10:00:03.623Z,1006.07
2024-03-19T10:01:03.652Z,1006.09
2024-03-19T10:02:03.660Z,1006.05
2024-03-19T10:03:03.915Z,1006.07
2024-03-19T10:04:03.790Z,1006.09
2024-03-19T10:05:03.732Z,1006.12
2024-03-19T10:06:03.845Z,1006.08
2024-03-19T10:07:03.755Z,1006.08
2024-03-19T10:08:03.797Z,1006.09
2024-03-19T10:09:03.910Z,1006.10
2024-03-19T10:10:03.853Z,1006.08
2024-03-19T10:11:03.830Z,1006.04
2024-03-19T10:12:03.877Z,1006.04
2024-03-19T10:13:03.887Z,1006.03
2024-03-19T10:14:03.907Z,1006.07
2024-03-19T10:15:03.943Z,1006.04
2024-03-19T10:16:03.979Z,1006.01
2024-03-19T10:17:03.949Z,1006.01
2024-03-19T10:18:04.029Z,1005.95
2024-03-19T10:19:04.032Z,1005.94
2024-03-19T10:20:04.020Z,1005.96
2024-03-19T10:21:04.056Z,1005.97
2024-03-19T10:22:04.069Z,1005.95
2024-03-19T10:23:04.079Z,1005.94
2024-03-19T10:24:04.141Z,1005.94
2024-03-19T10:25:04.159Z,1005.90
2024-03-19T10:26:04.221Z,1005.91
2024-03-19T10:27:04.160Z,1005.88
2024-03-19T10:28:04.202Z,1005.91
2024-03-19T10:29:04.257Z,1005.90
2024-03-19T14:48:22.529Z,1005.01
2024-03-19T14:49:22.531Z,1005.04
2024-03-19T14:50:22.565Z,1005.01
2024-03-19T14:51:22.569Z,1004.99
2024-03-19T14:52:22.690Z,1005.02
2024-03-19T14:53:22.627Z,1005.06
2024-03-19T14:54:22.720Z,1005.08
2024-03-19T14:55:22.718Z,1005.05
2024-03-19T14:56:22.792Z,1004.92
2024-03-19T14:57:22.731Z,1005.11
2024-03-19T14:58:22.770Z,1005.11
2024-03-19T14:59:22.821Z,1005.02
2024-03-19T15:00:22.833Z,1004.97
2024-03-19T15:01:22.845Z,1005.00
2024-03-19T15:02:22.886Z,1005.03
2024-03-19T15:03:23.040Z,1005.04
2024-03-19T15:04:22.958Z,1005.01
2024-03-19T15:05:22.965Z,1005.06
2024-03-19T15:06:23.021Z,1005.01
2024-03-19T15:07:23.042Z,1005.14
2024-03-19T15:08:23.040Z,1005.11
2024-03-19T15:09:23.098Z,1005.13
2024-03-19T15:10:23.098Z,1005.10
2024-03-19T15:11:23.130Z,1005.04
2024-03-19T15:12:23.150Z,1005.08
2024-03-19T15:13:23.194Z,1005.12
2024-03-19T15:14:23.212Z,1005.06
2024-03-19T15:15:23.233Z,1005.14
2024-03-19T15:16:23.261Z,1005.10
2024-03-19T15:17:23.298Z,1005.09
2024-03-19T15:18:23.313Z,1005.09
2024-03-19T15:19:23.359Z,1005.15
2024-03-19T15:20:23.371Z,1005.20
2024-03-19T15:21:23.459Z,1005.18
2024-03-19T15:22:23.418Z,1005.17
2024-03-19T15:23:23.450Z,1005.15
2024-03-19T15:24:23.462Z,1005.15
2024-03-19T15:25:23.972Z,1005.18
2024-03-19T15:26:23.546Z,1005.16
2024-03-19T15:27:23.553Z,1005.17
2024-03-19T15:28:23.581Z,1005.24
2024-03-19T15:29:23.591Z,1005.27
2024-03-19T15:30:23.628Z,1005.23
2024-03-19T15:31:23.639Z,1005.26
2024-03-19T15:32:32.371Z,1005.26
2024-03-19T15:33:23.683Z,1005.29
2024-03-19T15:34:23.704Z,1005.27
2024-03-19T15:35:25.742Z,1005.26
2024-03-19T15:36:23.767Z,1005.28
2024-03-19T15:37:23.780Z,1005.29
2024-03-19T15:38:23.828Z,1005.28
2024-03-19T15:39:23.846Z,1005.25
2024-03-19T15:40:23.873Z,1005.26
2024-03-19T15:41:23.962Z,1005.29
2024-03-19T15:42:23.905Z,1005.30
2024-03-19T15:43:23.912Z,1005.31
2024-03-19T15:44:23.959Z,1005.29
2024-03-19T15:45:23.982Z,1005.26
2024-03-19T15:46:23.998Z,1005.28
2024-03-19T15:47:24.022Z,1005.30
2024-03-19T15:48:24.033Z,1005.27
2024-03-19T15:49:24.096Z,1005.28
2024-03-19T15:50:24.096Z,1005.25
2024-03-19T15:51:24.118Z,1005.23
2024-03-19T15:52:24.154Z,1005.27
2024-03-19T15:53:24.182Z,1005.22
2024-03-19T15:54:24.184Z,1005.19
2024-03-19T15:55:24.468Z,1005.18
2024-03-19T15:56:24.240Z,1005.15
2024-03-19T15:57:24.256Z,1005.16
2024-03-19T15:58:24.267Z,1005.16
2024-03-19T15:59:24.289Z,1005.11
2024-03-19T16:00:24.351Z,1005.13
2024-03-19T16:01:24.349Z,1005.16
2024-03-19T16:02:24.355Z,1005.15
2024-03-19T16:03:24.375Z,1005.17
2024-03-19T16:04:24.407Z,1005.17
2024-03-19T16:05:24.422Z,1005.17
2024-03-19T16:06:24.453Z,1005.18
2024-03-19T16:07:24.477Z,1005.19
2024-03-19T16:08:24.498Z,1005.13
2024-03-19T16:09:24.532Z,1005.17
2024-03-19T16:10:24.534Z,1005.20
2024-03-19T16:11:24.607Z,1005.17
2024-03-19T16:12:24.614Z,1005.16
2024-03-19T16:13:24.603Z,1005.13
2024-03-19T16:14:24.640Z,1005.13
2024-03-19T16:15:24.642Z,1005.12
2024-03-19T16:16:24.674Z,1005.13
2024-03-19T16:17:24.698Z,1005.12
2024-03-19T16:18:24.706Z,1005.15
2024-03-19T16:19:24.772Z,1005.12
2024-03-19T16:20:24.757Z,1005.17
2024-03-19T16:21:24.781Z,1005.17
2024-03-19T16:22:24.825Z,1005.17
2024-03-19T16:23:24.819Z,1005.17
2024-03-19T16:24:24.856Z,1005.12